createdAt,value
2022-12-11T00:04:22.901Z,98574.44
2022-12-11T00:09:25.750Z,98561.09
2022-12-11T00:14:27.360Z,98563.63
2022-12-11T00:19:29.153Z,98573.50
2022-12-11T00:24:30.848Z,98561.09
2022-12-11T00:29:32.416Z,98556.81
2022-12-11T00:34:34.114Z,98560.06
2022-12-11T00:39:39.763Z,98555.09
2022-12-11T00:44:41.589Z,98562.56
2022-12-11T00:49:49.432Z,98564.16
2022-12-11T00:54:51.539Z,98565.78
2022-12-11T00:59:53.432Z,98571.63
2022-12-11T01:04:55.361Z,98565.69
2022-12-11T01:10:15.586Z,98557.44
2022-12-11T01:15:17.878Z,98562.38
2022-12-11T01:20:22.152Z,98576.34
2022-12-11T01:25:24.719Z,98566.56
2022-12-11T01:30:26.797Z,98570.38
2022-12-11T01:35:28.960Z,98577.63
2022-12-11T01:40:30.859Z,98591.72
2022-12-11T01:45:34.972Z,98594.00
2022-12-11T01:50:45.797Z,98596.34
2022-12-11T01:55:51.316Z,98603.00
2022-12-11T02:00:53.848Z,98599.56
2022-12-11T02:05:59.821Z,98617.94
2022-12-11T02:11:17.940Z,98613.84
2022-12-11T02:16:23.171Z,98618.78
2022-12-11T02:21:33.348Z,98617.19
2022-12-11T02:26:40.655Z,98618.78
2022-12-11T02:31:50.524Z,98616.44
2022-12-11T02:36:57.034Z,98617.97
2022-12-11T02:41:59.958Z,98607.13
2022-12-11T02:47:04.144Z,98604.75
2022-12-11T02:52:07.280Z,98602.09
2022-12-11T02:57:15.140Z,98593.63
2022-12-11T03:02:17.796Z,98595.47
2022-12-11T03:07:26.513Z,98588.69
2022-12-11T03:12:31.384Z,98582.84
2022-12-11T03:17:41.131Z,98586.94
2022-12-11T03:23:12.597Z,98586.19
2022-12-11T03:28:25.564Z,98586.94
2022-12-11T03:33:35.764Z,98586.16
2022-12-11T03:39:01.375Z,98576.88
2022-12-11T03:44:03.523Z,98574.19
2022-12-11T03:49:11.950Z,98581.69
2022-12-11T03:54:14.397Z,98589.38
2022-12-11T03:59:16.375Z,98600.06
2022-12-11T04:04:18.277Z,98605.09
2022-12-11T04:09:19.885Z,98609.03
2022-12-11T04:14:40.056Z,98598.25
2022-12-11T04:20:00.413Z,98595.84
2022-12-11T04:25:05.378Z,98596.56
2022-12-11T04:30:10.978Z,98607.13
2022-12-11T04:35:13.644Z,98599.56
2022-12-11T04:40:18.863Z,98601.16
2022-12-11T04:45:20.701Z,98606.03
2022-12-11T04:51:46.915Z,98611.50
2022-12-11T04:56:48.501Z,98615.16
2022-12-11T05:01:50.160Z,98631.44
2022-12-11T05:06:52.022Z,98621.31
2022-12-11T05:11:54.655Z,98617.78
2022-12-11T05:16:56.278Z,98640.81
2022-12-11T05:21:57.888Z,98655.78
2022-12-11T05:26:59.544Z,98657.97
2022-12-11T05:32:01.417Z,98646.41
2022-12-11T05:37:03.286Z,98654.81
2022-12-11T05:42:04.959Z,98666.41
2022-12-11T05:47:06.546Z,98668.75
2022-12-11T05:52:08.349Z,98696.91
2022-12-11T05:57:09.941Z,98698.22
2022-12-11T06:02:11.605Z,98701.13
2022-12-11T06:07:13.651Z,98716.28
2022-12-11T06:12:15.281Z,98711.53
2022-12-11T06:17:17.059Z,98709.91
2022-12-11T06:22:18.811Z,98732.53
2022-12-11T06:27:20.765Z,98735.13
2022-12-11T06:32:22.395Z,98738.38
2022-12-11T06:37:23.967Z,98737.34
2022-12-11T06:42:25.887Z,98731.38
2022-12-11T06:47:29.691Z,98744.78
2022-12-11T06:52:31.352Z,98727.44
2022-12-11T06:57:33.500Z,98740.84
2022-12-11T07:02:35.259Z,98741.78
2022-12-11T07:07:37.423Z,98754.22
2022-12-11T07:12:39.639Z,98764.91
2022-12-11T07:17:41.274Z,98775.69
2022-12-11T07:22:46.371Z,98775.25
2022-12-11T07:27:48.531Z,98767.84
2022-12-11T07:32:50.193Z,98766.44
2022-12-11T07:37:51.831Z,98764.94
2022-12-11T07:42:53.883Z,98771.56
2022-12-11T07:47:55.484Z,98770.91
2022-12-11T07:52:57.058Z,98773.31
2022-12-11T07:57:58.634Z,98761.91
2022-12-11T08:03:00.320Z,98765.13
2022-12-11T08:08:02.236Z,98776.78
2022-12-11T08:13:03.894Z,98771.75
2022-12-11T08:18:05.731Z,98759.75
2022-12-11T08:23:07.387Z,98758.06
2022-12-11T08:28:09.016Z,98766.97
2022-12-11T08:33:10.629Z,98762.09
2022-12-11T08:38:12.351Z,98769.53
2022-12-11T08:43:14.023Z,98775.50
2022-12-11T08:48:15.633Z,98772.44
2022-12-11T08:53:17.240Z,98792.44
2022-12-11T08:58:18.834Z,98786.03
2022-12-11T09:03:20.736Z,98789.50
2022-12-11T09:08:22.376Z,98781.44
2022-12-11T09:13:24.035Z,98780.56
2022-12-11T09:18:25.735Z,98764.03
2022-12-11T09:23:27.486Z,98786.56
2022-12-11T09:28:29.281Z,98774.72
2022-12-11T09:33:31.180Z,98770.59
2022-12-11T09:38:33.496Z,98756.38
2022-12-11T09:43:42.185Z,98747.66
2022-12-11T09:48:47.608Z,98754.09
2022-12-11T09:53:50.380Z,98759.38
2022-12-11T09:59:01.578Z,98752.47
2022-12-11T10:04:10.617Z,98738.06
2022-12-11T10:09:58.608Z,98734.94
2022-12-11T10:15:18.844Z,98713.88
2022-12-11T10:20:39.067Z,98729.13
2022-12-11T10:26:02.206Z,98726.66
2022-12-11T10:31:27.958Z,98733.84
2022-12-11T10:36:35.552Z,98738.78
2022-12-11T10:41:39.711Z,98727.00
2022-12-11T10:46:41.588Z,98735.19
2022-12-11T10:51:44.025Z,98731.22
2022-12-11T10:56:48.453Z,98735.81
2022-12-11T11:01:50.766Z,98730.19
2022-12-11T11:07:12.867Z,98738.66
2022-12-11T11:12:27.360Z,98733.34
2022-12-11T11:17:34.882Z,98727.09
2022-12-11T11:22:44.331Z,98727.94
2022-12-11T11:27:48.843Z,98721.97
2022-12-11T11:33:21.190Z,98721.00
2022-12-11T11:38:26.807Z,98731.47
2022-12-11T11:43:47.974Z,98735.56
2022-12-11T11:49:13.878Z,98723.16
2022-12-11T11:54:21.170Z,98715.47
2022-12-11T11:59:39.902Z,98718.31
2022-12-11T12:04:42.831Z,98706.88
2022-12-11T12:09:52.404Z,98703.25
2022-12-11T12:15:12.548Z,98702.91
2022-12-11T12:20:23.046Z,98706.25
2022-12-11T12:25:45.415Z,98711.91
2022-12-11T12:30:58.459Z,98709.34
2022-12-11T12:36:24.424Z,98718.69
2022-12-11T12:41:49.523Z,98713.09
2022-12-11T12:46:57.122Z,98717.56
2022-12-11T12:51:59.377Z,98724.13
2022-12-11T12:57:04.153Z,98715.19
2022-12-11T13:02:06.765Z,98711.03
2022-12-11T13:07:13.312Z,98710.38
2022-12-11T13:12:15.926Z,98718.03
2022-12-11T13:17:20.467Z,98714.59
2022-12-11T13:22:24.624Z,98724.53
2022-12-11T13:27:46.574Z,98725.81
2022-12-11T13:33:06.985Z,98729.88
2022-12-11T13:38:18.701Z,98738.00
2022-12-11T13:43:32.772Z,98743.28
2022-12-11T13:48:34.300Z,98750.94
2022-12-11T13:53:35.964Z,98750.84
2022-12-11T13:58:39.775Z,98761.63
2022-12-11T14:09:07.936Z,98772.22
2022-12-11T14:14:25.242Z,98773.47
2022-12-11T14:19:27.812Z,98775.81
2022-12-11T14:24:31.149Z,98783.06
2022-12-11T14:29:34.016Z,98783.75
2022-12-11T14:34:44.312Z,98786.91
2022-12-11T14:40:03.752Z,98796.25
2022-12-11T14:45:17.557Z,98807.38
2022-12-11T14:50:31.487Z,98811.19
2022-12-11T14:55:37.933Z,98808.88
2022-12-11T15:00:40.015Z,98817.97
2022-12-11T15:05:56.741Z,98833.09
2022-12-11T15:11:09.269Z,98835.13
2022-12-11T15:16:14.365Z,98838.41
2022-12-11T15:21:16.846Z,98844.34
2022-12-11T15:26:20.544Z,98839.94
2022-12-11T15:31:28.075Z,98849.78
2022-12-11T15:36:36.964Z,98861.09
2022-12-11T15:41:42.096Z,98869.59
2022-12-11T15:46:43.701Z,98877.72
2022-12-11T15:51:45.281Z,98871.50
2022-12-11T15:56:47.303Z,98880.72
2022-12-11T16:01:49.271Z,98883.97
2022-12-11T16:06:51.631Z,98888.03
2022-12-11T16:11:53.324Z,98881.47
2022-12-11T16:16:55.099Z,98887.13
2022-12-11T16:21:56.943Z,98895.63
2022-12-11T16:26:59.292Z,98885.16
2022-12-11T16:32:00.918Z,98878.56
2022-12-11T16:37:03.268Z,98886.63
2022-12-11T16:42:06.557Z,98881.19
2022-12-11T16:47:08.178Z,98878.63
2022-12-11T16:52:09.801Z,98874.19
2022-12-11T16:57:12.034Z,98885.69
2022-12-11T17:02:14.004Z,98878.22
2022-12-11T17:07:16.072Z,98876.31
2022-12-11T17:12:17.983Z,98888.13
2022-12-11T17:17:19.569Z,98882.25
2022-12-11T17:22:22.120Z,98896.19
2022-12-11T17:27:24.161Z,98889.53
2022-12-11T17:32:25.751Z,98889.53
2022-12-11T17:37:27.451Z,98893.69
2022-12-11T17:42:29.272Z,98892.25
2022-12-11T17:47:32.068Z,98897.91
2022-12-11T17:52:35.644Z,98901.16
2022-12-11T17:57:39.180Z,98917.69
2022-12-11T18:02:40.830Z,98917.56
2022-12-11T18:07:42.440Z,98919.34
2022-12-11T18:12:44.290Z,98926.38
2022-12-11T18:17:46.299Z,98937.22
2022-12-11T18:22:47.926Z,98948.09
2022-12-11T18:27:49.590Z,98937.75
2022-12-11T18:32:52.051Z,98955.63
2022-12-11T18:37:53.717Z,98963.16
2022-12-11T18:42:55.755Z,98972.25
2022-12-11T18:47:57.701Z,98973.16
2022-12-11T18:53:00.556Z,98970.34
2022-12-11T18:58:02.382Z,98975.13
2022-12-11T19:03:04.215Z,98979.41
2022-12-11T19:08:05.885Z,98972.53
2022-12-11T19:13:07.597Z,98969.34
2022-12-11T19:18:09.938Z,98971.94
2022-12-11T19:23:11.605Z,98966.31
2022-12-11T19:28:14.025Z,98969.34
2022-12-11T19:33:16.700Z,98966.09
2022-12-11T19:38:18.362Z,98959.63
2022-12-11T19:43:20.176Z,98966.59
2022-12-11T19:48:21.775Z,98963.34
2022-12-11T19:53:23.460Z,98955.97
2022-12-11T19:58:25.220Z,98956.09
2022-12-11T20:03:27.622Z,98957.41
2022-12-11T20:08:44.103Z,98971.03
2022-12-11T20:13:47.911Z,98972.81
2022-12-11T20:18:49.640Z,98977.00
2022-12-11T20:23:51.280Z,98970.81
2022-12-11T20:28:53.450Z,98972.72
2022-12-11T20:33:56.726Z,98977.88
2022-12-11T20:38:58.423Z,98961.13
2022-12-11T20:44:00.127Z,98973.41
2022-12-11T20:49:01.956Z,98964.06
2022-12-11T20:54:03.740Z,98970.03
2022-12-11T20:59:05.854Z,98968.88
2022-12-11T21:04:07.508Z,98972.81
2022-12-11T21:09:14.810Z,98967.78
2022-12-11T21:14:18.567Z,98965.13
2022-12-11T21:19:23.320Z,98968.56
2022-12-11T21:24:27.577Z,98967.56
2022-12-11T21:29:29.465Z,98968.84
2022-12-11T21:34:31.139Z,98975.31
2022-12-11T21:39:38.959Z,98973.09
2022-12-11T21:50:04.285Z,98981.38
2022-12-11T21:55:06.774Z,98974.63
2022-12-11T22:00:09.440Z,98974.34
2022-12-11T22:05:14.301Z,98973.44
2022-12-11T22:10:16.183Z,98967.22
2022-12-11T22:15:18.135Z,98964.03
2022-12-11T22:20:19.827Z,98960.69
2022-12-11T22:25:21.687Z,98965.09
2022-12-11T22:30:23.491Z,98967.44
2022-12-11T22:35:27.323Z,98955.53
2022-12-11T22:40:29.846Z,98964.19
2022-12-11T22:45:31.748Z,98963.50
2022-12-11T22:50:34.344Z,98968.56
2022-12-11T22:55:38.646Z,98971.03
2022-12-11T23:00:41.160Z,98968.59
2022-12-11T23:05:43.446Z,98967.78
2022-12-11T23:10:45.444Z,98965.13
2022-12-11T23:15:47.042Z,98963.44
2022-12-11T23:20:49.652Z,98965.97
2022-12-11T23:25:51.437Z,98961.81
2022-12-11T23:30:53.319Z,98957.97
2022-12-11T23:35:54.980Z,98958.78
2022-12-11T23:40:59.505Z,98960.41
2022-12-11T23:46:01.312Z,98951.03
2022-12-11T23:51:05.402Z,98965.91
2022-12-11T23:56:15.687Z,98951.66
